createdAt,value
2022-12-25T00:02:21.544Z,10.67
2022-12-25T00:04:53.422Z,10.66
2022-12-25T00:07:24.259Z,10.68
2022-12-25T00:09:55.828Z,10.70
2022-12-25T00:12:26.962Z,10.71
2022-12-25T00:14:55.492Z,10.72
2022-12-25T00:17:24.235Z,10.73
2022-12-25T00:19:52.446Z,10.75
2022-12-25T00:22:20.691Z,10.75
2022-12-25T00:24:53.319Z,10.76
2022-12-25T00:27:21.949Z,10.77
2022-12-25T00:29:57.788Z,10.79
2022-12-25T00:32:26.467Z,10.82
2022-12-25T00:34:57.270Z,10.85
2022-12-25T00:37:29.046Z,10.87
2022-12-25T00:40:00.445Z,10.88
2022-12-25T00:42:29.429Z,10.89
2022-12-25T00:45:02.187Z,10.90
2022-12-25T00:47:34.081Z,10.92
2022-12-25T00:50:02.365Z,10.93
2022-12-25T00:52:37.388Z,10.95
2022-12-25T00:55:06.537Z,10.95
2022-12-25T00:57:38.970Z,10.96
2022-12-25T01:00:08.301Z,10.95
2022-12-25T01:02:36.612Z,10.94
2022-12-25T01:05:06.540Z,10.92
2022-12-25T01:07:38.321Z,10.90
2022-12-25T01:10:26.207Z,10.89
2022-12-25T01:12:54.838Z,10.88
2022-12-25T01:15:23.771Z,10.88
2022-12-25T01:17:55.213Z,10.88
2022-12-25T01:20:24.001Z,10.87
2022-12-25T01:22:52.634Z,10.86
2022-12-25T01:25:25.758Z,10.83
2022-12-25T01:27:54.459Z,10.83
2022-12-25T01:30:22.965Z,10.83
2022-12-25T01:32:54.409Z,10.83
2022-12-25T01:35:23.089Z,10.84
2022-12-25T01:37:55.493Z,10.85
2022-12-25T01:40:26.259Z,10.85
2022-12-25T01:42:54.799Z,10.84
2022-12-25T01:45:40.016Z,10.84
2022-12-25T01:48:15.712Z,10.83
2022-12-25T01:50:50.575Z,10.82
2022-12-25T01:53:22.560Z,10.82
2022-12-25T01:55:58.156Z,10.84
2022-12-25T01:58:26.858Z,10.86
2022-12-25T02:00:58.529Z,10.87
2022-12-25T02:03:29.541Z,10.88
2022-12-25T02:05:58.445Z,10.89
2022-12-25T02:08:26.932Z,10.89
2022-12-25T02:11:03.883Z,10.90
2022-12-25T02:13:32.902Z,10.91
2022-12-25T02:16:18.443Z,10.90
2022-12-25T02:19:02.562Z,10.91
2022-12-25T02:22:06.750Z,10.92
2022-12-25T02:25:00.396Z,10.92
2022-12-25T02:27:56.579Z,10.92
2022-12-25T02:30:25.012Z,10.93
2022-12-25T02:33:21.824Z,10.94
2022-12-25T02:35:55.226Z,10.95
2022-12-25T02:38:37.330Z,10.94
2022-12-25T02:41:14.413Z,10.94
2022-12-25T02:44:04.638Z,10.94
2022-12-25T02:46:52.814Z,10.94
2022-12-25T02:49:44.776Z,10.94
2022-12-25T02:52:38.866Z,10.92
2022-12-25T02:55:34.518Z,10.91
2022-12-25T02:58:27.444Z,10.92
2022-12-25T03:01:44.523Z,10.92
2022-12-25T03:04:36.868Z,10.91
2022-12-25T03:07:27.057Z,10.90
2022-12-25T03:10:25.229Z,10.92
2022-12-25T03:13:14.370Z,10.92
2022-12-25T03:16:01.181Z,10.93
2022-12-25T03:18:41.150Z,10.92
2022-12-25T03:21:28.862Z,10.93
2022-12-25T03:24:04.927Z,10.96
2022-12-25T03:26:52.869Z,10.98
2022-12-25T03:29:39.975Z,11.01
2022-12-25T03:32:36.321Z,11.03
2022-12-25T03:35:29.462Z,11.06
2022-12-25T03:38:42.232Z,11.09
2022-12-25T03:42:00.883Z,11.10
2022-12-25T03:45:22.273Z,11.11
2022-12-25T03:48:13.521Z,11.12
2022-12-25T03:51:03.900Z,11.15
2022-12-25T03:53:59.952Z,11.19
2022-12-25T03:56:48.256Z,11.20
2022-12-25T03:59:39.994Z,11.22
2022-12-25T04:02:30.357Z,11.23
2022-12-25T04:05:17.607Z,11.24
2022-12-25T04:08:04.725Z,11.26
2022-12-25T04:10:59.681Z,11.26
2022-12-25T04:13:47.918Z,11.26
2022-12-25T04:19:44.819Z,11.27
2022-12-25T04:22:36.119Z,11.29
2022-12-25T04:25:23.056Z,11.31
2022-12-25T04:28:12.600Z,11.30
2022-12-25T04:30:59.594Z,11.31
2022-12-25T04:33:52.850Z,11.30
2022-12-25T04:36:21.975Z,11.30
2022-12-25T04:38:50.819Z,11.30
2022-12-25T04:41:19.378Z,11.30
2022-12-25T04:43:48.030Z,11.31
2022-12-25T04:46:18.873Z,11.31
2022-12-25T04:48:47.172Z,11.31
2022-12-25T04:51:21.479Z,11.32
2022-12-25T04:53:53.920Z,11.34
2022-12-25T04:56:23.161Z,11.36
2022-12-25T04:58:54.499Z,11.38
2022-12-25T05:01:23.332Z,11.39
2022-12-25T05:03:51.883Z,11.41
2022-12-25T05:06:23.845Z,11.44
2022-12-25T05:08:54.497Z,11.45
2022-12-25T05:11:23.045Z,11.47
2022-12-25T05:13:53.875Z,11.47
2022-12-25T05:16:22.798Z,11.48
2022-12-25T05:18:52.976Z,11.47
2022-12-25T05:21:21.671Z,11.48
2022-12-25T05:23:54.468Z,11.48
2022-12-25T05:26:25.627Z,11.49
2022-12-25T05:28:54.905Z,11.50
2022-12-25T05:31:23.467Z,11.51
2022-12-25T05:33:55.926Z,11.53
2022-12-25T05:36:27.359Z,11.52
2022-12-25T05:38:58.971Z,11.52
2022-12-25T05:41:32.255Z,11.51
2022-12-25T05:44:02.956Z,11.52
2022-12-25T05:46:31.452Z,11.54
2022-12-25T05:49:00.126Z,11.54
2022-12-25T05:51:29.016Z,11.54
2022-12-25T05:53:57.124Z,11.54
2022-12-25T05:56:25.667Z,11.54
2022-12-25T05:58:54.656Z,11.55
2022-12-25T06:01:26.216Z,11.56
2022-12-25T06:03:55.133Z,11.55
2022-12-25T06:06:24.036Z,11.53
2022-12-25T06:08:56.090Z,11.50
2022-12-25T06:11:26.279Z,11.49
2022-12-25T06:13:57.198Z,11.48
2022-12-25T06:16:26.162Z,11.45
2022-12-25T06:18:54.826Z,11.43
2022-12-25T06:21:23.484Z,11.41
2022-12-25T06:23:54.738Z,11.40
2022-12-25T06:26:23.332Z,11.39
2022-12-25T06:28:52.209Z,11.38
2022-12-25T06:31:26.044Z,11.36
2022-12-25T06:33:54.782Z,11.33
2022-12-25T06:36:26.787Z,11.31
2022-12-25T06:38:58.040Z,11.30
2022-12-25T06:41:28.306Z,11.30
2022-12-25T06:44:01.960Z,11.29
2022-12-25T06:46:32.574Z,11.28
2022-12-25T06:49:02.436Z,11.27
2022-12-25T06:51:33.222Z,11.25
2022-12-25T06:54:04.983Z,11.25
2022-12-25T06:56:38.402Z,11.24
2022-12-25T06:59:12.589Z,11.22
2022-12-25T07:01:57.621Z,11.20
2022-12-25T07:04:46.777Z,11.20
2022-12-25T07:07:20.775Z,11.20
2022-12-25T07:09:52.140Z,11.19
2022-12-25T07:12:24.149Z,11.18
2022-12-25T07:14:56.771Z,11.15
2022-12-25T07:17:26.858Z,11.16
2022-12-25T07:20:00.469Z,11.15
2022-12-25T07:22:31.132Z,11.16
2022-12-25T07:24:59.582Z,11.15
2022-12-25T07:27:29.908Z,11.13
2022-12-25T07:30:01.077Z,11.12
2022-12-25T07:32:32.528Z,11.13
2022-12-25T07:35:03.313Z,11.12
2022-12-25T07:37:31.974Z,11.12
2022-12-25T07:40:00.997Z,11.11
2022-12-25T07:42:32.780Z,11.10
2022-12-25T07:45:07.192Z,11.09
2022-12-25T07:47:39.352Z,11.09
2022-12-25T07:50:08.952Z,11.08
2022-12-25T07:52:43.250Z,11.06
2022-12-25T07:55:15.547Z,11.05
2022-12-25T07:57:47.022Z,11.03
2022-12-25T08:00:16.638Z,11.01
2022-12-25T08:02:45.537Z,10.98
2022-12-25T08:05:14.939Z,10.95
2022-12-25T08:07:57.108Z,10.93
2022-12-25T08:10:29.949Z,10.90
2022-12-25T08:12:58.557Z,10.86
2022-12-25T08:15:27.190Z,10.83
2022-12-25T08:17:56.754Z,10.83
2022-12-25T08:20:25.399Z,10.82
2022-12-25T08:22:55.762Z,10.81
2022-12-25T08:25:24.116Z,10.78
2022-12-25T08:27:57.404Z,10.75
2022-12-25T08:30:32.943Z,10.72
2022-12-25T08:33:01.835Z,10.71
2022-12-25T08:35:30.538Z,10.69
2022-12-25T08:38:06.753Z,10.67
2022-12-25T08:40:36.832Z,10.68
2022-12-25T08:43:12.624Z,10.70
2022-12-25T08:45:41.343Z,10.70
2022-12-25T08:48:12.734Z,10.71
2022-12-25T08:50:41.343Z,10.73
2022-12-25T08:53:09.590Z,10.74
2022-12-25T08:55:41.223Z,10.76
2022-12-25T08:58:09.612Z,10.77
2022-12-25T09:00:38.471Z,10.80
2022-12-25T09:03:12.115Z,10.85
2022-12-25T09:05:40.487Z,10.89
2022-12-25T09:08:11.211Z,10.91
2022-12-25T09:10:42.126Z,10.93
2022-12-25T09:13:10.891Z,10.98
2022-12-25T09:15:39.883Z,11.01
2022-12-25T09:18:08.875Z,11.04
2022-12-25T09:20:37.359Z,11.06
2022-12-25T09:23:11.667Z,11.07
2022-12-25T09:25:42.478Z,11.08
2022-12-25T09:28:11.522Z,11.08
2022-12-25T09:30:44.384Z,11.08
2022-12-25T09:33:13.158Z,11.07
2022-12-25T09:35:41.731Z,11.06
2022-12-25T09:38:10.324Z,11.05
2022-12-25T09:40:38.864Z,11.03
2022-12-25T09:43:07.338Z,11.02
2022-12-25T09:45:40.606Z,11.01
2022-12-25T09:48:16.879Z,11.01
2022-12-25T09:51:08.899Z,11.01
2022-12-25T09:53:44.679Z,11.01
2022-12-25T09:56:26.947Z,11.01
2022-12-25T09:58:56.072Z,10.99
2022-12-25T10:02:03.545Z,10.99
2022-12-25T10:05:11.145Z,10.98
2022-12-25T10:08:25.347Z,10.98
2022-12-25T10:11:22.796Z,10.97
2022-12-25T10:14:26.603Z,10.96
2022-12-25T10:17:44.818Z,10.94
2022-12-25T10:20:27.393Z,10.92
2022-12-25T10:23:01.638Z,10.90
2022-12-25T10:25:30.358Z,10.88
2022-12-25T10:28:12.946Z,10.86
2022-12-25T10:30:45.861Z,10.85
2022-12-25T10:33:18.371Z,10.85
2022-12-25T10:35:49.642Z,10.84
2022-12-25T10:38:20.457Z,10.81
2022-12-25T10:41:18.032Z,10.79
2022-12-25T10:43:56.427Z,10.75
2022-12-25T10:46:29.208Z,10.72
2022-12-25T10:49:04.038Z,10.68
2022-12-25T10:51:36.939Z,10.64
2022-12-25T10:54:26.358Z,10.60
2022-12-25T10:57:13.996Z,10.58
2022-12-25T10:59:50.474Z,10.57
2022-12-25T11:02:27.644Z,10.56
2022-12-25T11:05:06.030Z,10.54
2022-12-25T11:07:49.131Z,10.53
2022-12-25T11:10:44.864Z,10.50
2022-12-25T11:13:49.636Z,10.50
2022-12-25T11:16:42.556Z,10.50
2022-12-25T11:19:40.883Z,10.50
2022-12-25T11:22:20.333Z,10.47
2022-12-25T11:24:48.961Z,10.45
2022-12-25T11:27:31.350Z,10.41
2022-12-25T11:30:09.998Z,10.37
2022-12-25T11:32:58.787Z,10.34
2022-12-25T11:35:35.363Z,10.31
2022-12-25T11:38:07.987Z,10.27
2022-12-25T11:40:45.731Z,10.24
2022-12-25T11:43:57.227Z,10.20
2022-12-25T11:46:35.233Z,10.16
2022-12-25T11:49:11.134Z,10.13
2022-12-25T11:51:43.087Z,10.11
2022-12-25T11:54:20.806Z,10.10
2022-12-25T11:56:50.225Z,10.09
2022-12-25T11:59:33.495Z,10.08
2022-12-25T12:02:22.248Z,10.06
2022-12-25T12:05:01.009Z,10.06
2022-12-25T12:07:34.733Z,10.06
2022-12-25T12:10:44.635Z,10.05
2022-12-25T12:13:19.083Z,10.02
2022-12-25T12:15:50.369Z,9.99
2022-12-25T12:18:50.009Z,9.96
2022-12-25T12:21:24.881Z,9.94
2022-12-25T12:24:12.241Z,9.93
2022-12-25T12:26:43.569Z,9.92
2022-12-25T12:29:34.912Z,9.92
2022-12-25T12:32:06.118Z,9.92
2022-12-25T12:34:43.203Z,9.91
2022-12-25T12:37:25.007Z,9.92
2022-12-25T12:40:02.078Z,9.93
2022-12-25T12:42:47.128Z,9.94
2022-12-25T12:45:25.157Z,9.93
2022-12-25T12:47:54.593Z,9.93
2022-12-25T12:50:43.274Z,9.93
2022-12-25T12:53:34.374Z,9.92
2022-12-25T12:56:23.809Z,9.91
2022-12-25T12:58:52.271Z,9.89
2022-12-25T13:01:33.894Z,9.87
2022-12-25T13:04:33.364Z,9.85
2022-12-25T13:07:14.045Z,9.83
2022-12-25T13:10:01.079Z,9.81
2022-12-25T13:12:29.740Z,9.80
2022-12-25T13:14:58.473Z,9.79
2022-12-25T13:17:32.295Z,9.79
2022-12-25T13:20:04.235Z,9.80
2022-12-25T13:22:38.728Z,9.80
2022-12-25T13:25:21.667Z,9.80
2022-12-25T13:28:00.492Z,9.80
2022-12-25T13:30:31.215Z,9.81
2022-12-25T13:33:01.115Z,9.82
2022-12-25T13:35:30.643Z,9.84
2022-12-25T13:37:59.988Z,9.87
2022-12-25T13:40:32.835Z,9.89
2022-12-25T13:43:04.895Z,9.92
2022-12-25T13:45:36.573Z,9.94
2022-12-25T13:48:16.959Z,9.96
2022-12-25T13:50:49.341Z,9.99
2022-12-25T13:53:19.050Z,10.04
2022-12-25T13:55:53.393Z,10.07
2022-12-25T13:58:34.748Z,10.12
2022-12-25T14:01:04.591Z,10.15
2022-12-25T14:03:49.982Z,10.21
2022-12-25T14:06:30.695Z,10.24
2022-12-25T14:09:00.131Z,10.28
2022-12-25T14:11:30.941Z,10.31
2022-12-25T14:14:04.047Z,10.33
2022-12-25T14:16:33.426Z,10.35
2022-12-25T14:19:04.447Z,10.36
2022-12-25T14:21:36.715Z,10.38
2022-12-25T14:24:05.504Z,10.39
2022-12-25T14:26:36.387Z,10.40
2022-12-25T14:29:16.897Z,10.40
2022-12-25T14:31:51.834Z,10.41
2022-12-25T14:34:26.162Z,10.41
2022-12-25T14:36:55.430Z,10.42
2022-12-25T14:39:37.661Z,10.42
2022-12-25T14:42:24.735Z,10.44
2022-12-25T14:45:08.495Z,10.45
2022-12-25T14:48:02.023Z,10.46
2022-12-25T14:50:43.050Z,10.47
2022-12-25T14:53:25.798Z,10.49
2022-12-25T14:55:56.412Z,10.51
2022-12-25T14:58:30.616Z,10.51
2022-12-25T15:01:01.780Z,10.52
2022-12-25T15:03:38.690Z,10.52
2022-12-25T15:06:20.071Z,10.52
2022-12-25T15:09:03.640Z,10.51
2022-12-25T15:11:32.666Z,10.52
2022-12-25T15:14:01.195Z,10.53
2022-12-25T15:16:36.356Z,10.54
2022-12-25T15:19:10.246Z,10.54
2022-12-25T15:21:38.996Z,10.53
2022-12-25T15:24:14.090Z,10.55
2022-12-25T15:26:42.993Z,10.56
2022-12-25T15:29:11.517Z,10.59
2022-12-25T15:31:43.753Z,10.61
2022-12-25T15:34:21.734Z,10.62
2022-12-25T15:36:54.528Z,10.61
2022-12-25T15:39:25.116Z,10.60
2022-12-25T15:42:12.677Z,10.60
2022-12-25T15:44:44.244Z,10.61
2022-12-25T15:47:14.201Z,10.60
2022-12-25T15:49:45.362Z,10.60
2022-12-25T15:52:20.627Z,10.59
2022-12-25T15:54:49.205Z,10.59
2022-12-25T15:57:29.070Z,10.60
2022-12-25T15:59:57.763Z,10.61
2022-12-25T16:02:26.582Z,10.62
2022-12-25T16:04:56.135Z,10.63
2022-12-25T16:07:26.782Z,10.63
2022-12-25T16:09:55.352Z,10.64
2022-12-25T16:12:24.138Z,10.63
2022-12-25T16:14:52.533Z,10.65
2022-12-25T16:17:22.300Z,10.65
2022-12-25T16:19:54.082Z,10.65
2022-12-25T16:22:26.370Z,10.66
2022-12-25T16:24:55.340Z,10.67
2022-12-25T16:27:33.074Z,10.66
2022-12-25T16:30:01.482Z,10.66
2022-12-25T16:32:30.138Z,10.66
2022-12-25T16:34:58.573Z,10.68
2022-12-25T16:37:28.125Z,10.67
2022-12-25T16:39:56.608Z,10.67
2022-12-25T16:42:25.281Z,10.65
2022-12-25T16:44:55.963Z,10.63
2022-12-25T16:47:24.427Z,10.61
2022-12-25T16:49:53.250Z,10.59
2022-12-25T16:52:24.015Z,10.57
2022-12-25T16:54:52.402Z,10.56
2022-12-25T16:57:25.531Z,10.54
2022-12-25T16:59:54.131Z,10.54
2022-12-25T17:02:23.161Z,10.53
2022-12-25T17:04:54.343Z,10.52
2022-12-25T17:07:25.563Z,10.51
2022-12-25T17:09:54.405Z,10.50
2022-12-25T17:12:28.302Z,10.48
2022-12-25T17:15:02.718Z,10.46
2022-12-25T17:17:31.198Z,10.44
2022-12-25T17:19:59.724Z,10.43
2022-12-25T17:22:28.198Z,10.42
2022-12-25T17:24:58.012Z,10.40
2022-12-25T17:27:26.635Z,10.39
2022-12-25T17:29:55.396Z,10.37
2022-12-25T17:32:24.241Z,10.36
2022-12-25T17:35:01.857Z,10.35
2022-12-25T17:37:30.662Z,10.35
2022-12-25T17:40:02.418Z,10.35
2022-12-25T17:42:36.947Z,10.34
2022-12-25T17:45:06.136Z,10.32
2022-12-25T17:47:37.395Z,10.33
2022-12-25T17:50:06.310Z,10.32
2022-12-25T17:52:35.113Z,10.31
2022-12-25T17:55:05.488Z,10.31
2022-12-25T17:57:34.131Z,10.32
2022-12-25T18:00:02.976Z,10.32
2022-12-25T18:02:31.896Z,10.33
2022-12-25T18:05:01.046Z,10.33
2022-12-25T18:07:29.817Z,10.34
2022-12-25T18:09:58.442Z,10.35
2022-12-25T18:12:26.917Z,10.35
2022-12-25T18:14:55.551Z,10.34
2022-12-25T18:17:30.080Z,10.34
2022-12-25T18:19:58.845Z,10.33
2022-12-25T18:22:27.498Z,10.33
2022-12-25T18:24:56.172Z,10.33
2022-12-25T18:27:25.064Z,10.33
2022-12-25T18:29:56.158Z,10.31
2022-12-25T18:32:27.965Z,10.30
2022-12-25T18:34:57.096Z,10.28
2022-12-25T18:37:25.750Z,10.28
2022-12-25T18:39:54.226Z,10.27
2022-12-25T18:42:40.855Z,10.27
2022-12-25T18:45:15.410Z,10.27
2022-12-25T18:47:44.029Z,10.27
2022-12-25T18:50:13.465Z,10.25
2022-12-25T18:52:50.689Z,10.25
2022-12-25T18:55:20.531Z,10.25
2022-12-25T18:57:53.269Z,10.27
2022-12-25T19:00:22.360Z,10.29
2022-12-25T19:02:51.184Z,10.30
2022-12-25T19:05:20.057Z,10.31
2022-12-25T19:07:48.988Z,10.34
2022-12-25T19:10:21.579Z,10.35
2022-12-25T19:12:56.040Z,10.37
2022-12-25T19:15:27.761Z,10.40
2022-12-25T19:18:02.897Z,10.42
2022-12-25T19:20:35.416Z,10.45
2022-12-25T19:23:09.593Z,10.47
2022-12-25T19:25:40.958Z,10.50
2022-12-25T19:28:09.643Z,10.52
2022-12-25T19:30:40.047Z,10.54
2022-12-25T19:33:17.221Z,10.57
2022-12-25T19:35:47.676Z,10.59
2022-12-25T19:41:03.814Z,10.61
2022-12-25T19:43:38.701Z,10.62
2022-12-25T19:46:20.458Z,10.64
2022-12-25T19:48:49.277Z,10.66
2022-12-25T19:51:26.391Z,10.68
2022-12-25T19:54:07.111Z,10.71
2022-12-25T19:56:39.375Z,10.74
2022-12-25T19:59:08.049Z,10.75
2022-12-25T20:01:37.107Z,10.78
2022-12-25T20:04:08.483Z,10.80
2022-12-25T20:06:46.308Z,10.82
2022-12-25T20:09:21.217Z,10.84
2022-12-25T20:11:54.448Z,10.86
2022-12-25T20:14:23.150Z,10.89
2022-12-25T20:16:53.494Z,10.90
2022-12-25T20:19:22.018Z,10.91
2022-12-25T20:21:53.953Z,10.92
2022-12-25T20:24:24.846Z,10.93
2022-12-25T20:26:58.818Z,10.94
2022-12-25T20:29:35.458Z,10.95
2022-12-25T20:32:08.530Z,10.94
2022-12-25T20:34:37.176Z,10.95
2022-12-25T20:37:05.581Z,10.94
2022-12-25T20:39:37.220Z,10.94
2022-12-25T20:42:05.680Z,10.94
2022-12-25T20:44:34.394Z,10.94
2022-12-25T20:47:04.336Z,10.95
2022-12-25T20:49:33.470Z,10.95
2022-12-25T20:52:05.573Z,10.96
2022-12-25T20:54:34.392Z,10.98
2022-12-25T20:57:03.068Z,11.01
2022-12-25T20:59:37.140Z,11.03
2022-12-25T21:02:06.925Z,11.05
2022-12-25T21:04:35.472Z,11.07
2022-12-25T21:07:06.176Z,11.08
2022-12-25T21:09:39.940Z,11.09
2022-12-25T21:12:11.313Z,11.12
2022-12-25T21:14:44.979Z,11.14
2022-12-25T21:17:16.507Z,11.14
2022-12-25T21:19:45.326Z,11.16
2022-12-25T21:22:14.097Z,11.18
2022-12-25T21:24:45.719Z,11.20
2022-12-25T21:27:14.101Z,11.21
2022-12-25T21:29:42.334Z,11.23
2022-12-25T21:32:29.350Z,11.23
2022-12-25T21:35:01.149Z,11.24
2022-12-25T21:37:36.021Z,11.24
2022-12-25T21:40:04.836Z,11.24
2022-12-25T21:42:36.544Z,11.24
2022-12-25T21:45:05.396Z,11.26
2022-12-25T21:48:02.172Z,11.26
2022-12-25T21:50:42.037Z,11.27
2022-12-25T21:53:15.660Z,11.27
2022-12-25T21:55:44.532Z,11.26
2022-12-25T21:58:13.030Z,11.25
2022-12-25T22:00:41.794Z,11.24
2022-12-25T22:03:13.441Z,11.22
2022-12-25T22:06:01.086Z,11.20
2022-12-25T22:08:36.031Z,11.19
2022-12-25T22:11:05.259Z,11.17
2022-12-25T22:13:52.356Z,11.16
2022-12-25T22:16:38.961Z,11.15
2022-12-25T22:19:28.531Z,11.14
2022-12-25T22:21:57.121Z,11.13
2022-12-25T22:24:25.811Z,11.13
2022-12-25T22:26:56.464Z,11.12
2022-12-25T22:29:25.086Z,11.11
2022-12-25T22:31:53.586Z,11.10
2022-12-25T22:34:22.200Z,11.10
2022-12-25T22:36:51.132Z,11.08
2022-12-25T22:39:19.681Z,11.07
2022-12-25T22:41:54.294Z,11.05
2022-12-25T22:44:23.710Z,11.05
2022-12-25T22:46:52.473Z,11.04
2022-12-25T22:49:22.102Z,11.04
2022-12-25T22:51:53.309Z,11.04
2022-12-25T22:54:23.045Z,11.04
2022-12-25T22:56:53.714Z,11.04
2022-12-25T22:59:23.867Z,11.05
2022-12-25T23:01:52.442Z,11.05
2022-12-25T23:04:21.464Z,11.04
2022-12-25T23:06:51.918Z,11.04
2022-12-25T23:09:28.840Z,11.04
2022-12-25T23:11:59.004Z,11.04
2022-12-25T23:14:43.174Z,11.04
2022-12-25T23:17:33.074Z,11.05
2022-12-25T23:20:20.986Z,11.07
2022-12-25T23:23:07.812Z,11.08
2022-12-25T23:25:54.828Z,11.08
2022-12-25T23:28:41.501Z,11.08
2022-12-25T23:31:12.807Z,11.08
2022-12-25T23:33:46.817Z,11.08
2022-12-25T23:36:15.736Z,11.11
2022-12-25T23:38:46.609Z,11.12
2022-12-25T23:41:15.170Z,11.12
2022-12-25T23:43:43.921Z,11.10
2022-12-25T23:46:12.692Z,11.09
2022-12-25T23:48:45.277Z,11.08
2022-12-25T23:51:14.186Z,11.06
2022-12-25T23:53:42.857Z,11.06
2022-12-25T23:56:12.587Z,11.04
2022-12-25T23:58:41.511Z,11.03
